Birken, Canada
Current Conditions -  °F | °C
As of 9:10 AM on Thursday 18 Dec 2014 (Local Time) from CWLY Reporting Station
Moderate Fog Moderate Fog  
Wind Chill: 32°   Ceiling: 1800
Heat Index: 32°   Visibility: 0.25mi
Dew Point: 32°   Wind: 0mph
Humidity: 100%   Direction: NA
Pressure: 29.93"   Gusts: NA
Location:  50.48°N, 122.61°W
Report Text: CWLY 181710Z AUTO 00000KT 1/4SM FG FEW008 OVC018 00/00 A2993 RMK SLP143
Loading
Personal Weather Stations






























Interactive Weather Map New forecast layout! Learn more

10-Day Weather Forecast

Advertisements
Track Severe Weather on mobile